TimeCST,TemperatureF,Dew PointF,Humidity,Sea Level PressureIn,VisibilityMPH,Wind Direction,Wind SpeedMPH,Gust SpeedMPH,PrecipitationIn,Events,Conditions,WindDirDegrees,DateUTC
12:58 AM,34.0,33.1,96,30.22,10.0,North,3.5,-,N/A,,Clear,350,2013-01-08 06:58:00
1:58 AM,34.0,33.1,96,30.23,10.0,Calm,Calm,-,N/A,,Clear,0,2013-01-08 07:58:00
2:58 AM,33.1,32.0,96,30.23,9.0,NNW,3.5,-,N/A,,Clear,340,2013-01-08 08:58:00
3:58 AM,35.1,34.0,96,30.22,10.0,Calm,Calm,-,N/A,,Mostly Cloudy,0,2013-01-08 09:58:00
4:58 AM,39.0,37.0,93,30.23,10.0,Calm,Calm,-,N/A,,Overcast,0,2013-01-08 10:58:00
5:58 AM,39.0,37.0,93,30.23,10.0,Calm,Calm,-,N/A,,Mostly Cloudy,0,2013-01-08 11:58:00
6:58 AM,37.9,36.0,93,30.23,10.0,NNE,3.5,-,N/A,,Partly Cloudy,20,2013-01-08 12:58:00
7:58 AM,41.0,37.9,89,30.27,10.0,North,4.6,-,N/A,,Partly Cloudy,360,2013-01-08 13:58:00
8:58 AM,44.1,37.9,79,30.28,10.0,East,5.8,-,N/A,,Overcast,90,2013-01-08 14:58:00
9:58 AM,48.9,41.0,74,30.30,10.0,Variable,3.5,-,N/A,,Overcast,0,2013-01-08 15:58:00
10:58 AM,54.0,43.0,66,30.27,10.0,Calm,Calm,-,N/A,,Partly Cloudy,0,2013-01-08 16:58:00
11:58 AM,57.0,46.0,67,30.24,10.0,Variable,3.5,-,N/A,,Overcast,0,2013-01-08 17:58:00
12:58 PM,61.0,48.0,62,30.21,10.0,NNE,3.5,-,N/A,,Overcast,30,2013-01-08 18:58:00
1:58 PM,62.1,48.0,60,30.19,10.0,NE,6.9,-,N/A,,Mostly Cloudy,50,2013-01-08 19:58:00
2:56 PM,62.6,48.2,59,30.18,10.0,NE,8.1,-,N/A,,Mostly Cloudy,40,2013-01-08 20:56:00
2:58 PM,62.1,48.9,62,30.19,10.0,NE,9.2,-,N/A,,Mostly Cloudy,40,2013-01-08 20:58:00
3:37 PM,62.6,50.0,63,30.18,10.0,East,6.9,-,N/A,,Overcast,90,2013-01-08 21:37:00
3:58 PM,62.1,50.0,65,30.17,10.0,ENE,8.1,-,N/A,,Mostly Cloudy,60,2013-01-08 21:58:00
4:05 PM,62.6,50.0,63,30.17,10.0,East,8.1,-,N/A,,Mostly Cloudy,80,2013-01-08 22:05:00
4:58 PM,60.1,48.9,67,30.17,10.0,ENE,5.8,-,N/A,,Overcast,70,2013-01-08 22:58:00
5:48 PM,59.0,48.2,67,30.17,10.0,East,5.8,-,N/A,,Mostly Cloudy,80,2013-01-08 23:48:00
5:58 PM,57.9,48.9,72,30.18,10.0,Variable,3.5,-,N/A,,Mostly Cloudy,0,2013-01-08 23:58:00
6:58 PM,57.0,48.9,74,30.19,10.0,Calm,Calm,-,N/A,,Mostly Cloudy,0,2013-01-09 00:58:00
7:29 PM,57.2,50.0,77,30.19,10.0,East,5.8,-,N/A,,Overcast,80,2013-01-09 01:29:00
7:56 PM,57.2,48.2,72,30.19,10.0,East,6.9,-,N/A,,Mostly Cloudy,90,2013-01-09 01:56:00
7:58 PM,57.0,48.9,74,30.19,10.0,East,5.8,-,N/A,,Mostly Cloudy,90,2013-01-09 01:58:00
8:58 PM,55.9,48.9,77,30.19,10.0,Variable,4.6,-,N/A,,Mostly Cloudy,0,2013-01-09 02:58:00
9:27 PM,57.2,50.0,77,30.20,10.0,East,4.6,-,0.00,Rain,Light Rain,100,2013-01-09 03:27:00
9:40 PM,57.2,51.8,82,30.21,10.0,Variable,6.9,-,0.00,,Overcast,0,2013-01-09 03:40:00
9:58 PM,57.0,51.1,81,30.22,10.0,SSE,5.8,-,0.00,Rain,Light Rain,160,2013-01-09 03:58:00
10:23 PM,55.4,51.8,88,30.23,10.0,South,3.5,-,0.00,,Overcast,170,2013-01-09 04:23:00
10:58 PM,55.0,52.0,89,30.22,10.0,Calm,Calm,-,0.00,,Overcast,0,2013-01-09 04:58:00
11:58 PM,57.0,52.0,83,30.21,10.0,Calm,Calm,-,0.00,Rain,Light Rain,0,2013-01-09 05:58:00